createdAt,value
2022-10-14T00:00:30.003Z,100
2022-10-14T00:05:31.834Z,100
2022-10-14T00:10:33.504Z,100
2022-10-14T00:15:34.925Z,100
2022-10-14T00:20:36.525Z,100
2022-10-14T00:25:38.186Z,100
2022-10-14T00:30:39.592Z,100
2022-10-14T00:35:40.794Z,100
2022-10-14T00:40:42.812Z,100
2022-10-14T00:45:45.300Z,100
2022-10-14T00:50:46.859Z,100
2022-10-14T00:55:48.845Z,100
2022-10-14T01:00:50.271Z,100
2022-10-14T01:05:52.194Z,100
2022-10-14T01:10:53.539Z,100
2022-10-14T01:15:54.940Z,100
2022-10-14T01:20:56.334Z,100
2022-10-14T01:25:57.559Z,100
2022-10-14T01:31:47.223Z,100
2022-10-14T01:36:01.286Z,100
2022-10-14T01:41:02.915Z,100
2022-10-14T01:46:04.733Z,100
2022-10-14T01:51:06.680Z,100
2022-10-14T01:56:07.854Z,100
2022-10-14T02:01:09.309Z,100
2022-10-14T02:06:10.867Z,100
2022-10-14T02:11:13.005Z,100
2022-10-14T02:16:15.134Z,100
2022-10-14T02:21:16.531Z,100
2022-10-14T02:26:18.651Z,100
2022-10-14T02:31:20.437Z,100
2022-10-14T02:31:30.019Z,100
2022-10-14T02:36:31.506Z,100
2022-10-14T02:41:33.282Z,100
2022-10-14T02:46:34.501Z,100
2022-10-14T02:51:36.625Z,100
2022-10-14T02:56:38.182Z,100
2022-10-14T03:01:40.164Z,100
2022-10-14T03:06:42.023Z,100
2022-10-14T03:11:44.004Z,100
2022-10-14T03:16:45.657Z,100
2022-10-14T03:21:47.356Z,100
2022-10-14T03:57:00.191Z,100
2022-10-14T04:07:04.312Z,100
2022-10-14T04:12:05.322Z,100
2022-10-14T04:22:08.092Z,100
2022-10-14T04:27:09.918Z,100
2022-10-14T04:32:11.545Z,100
2022-10-14T04:37:12.849Z,100
2022-10-14T04:42:14.043Z,100
2022-10-14T04:52:18.054Z,100
2022-10-14T04:57:20.163Z,100
2022-10-14T05:02:22.618Z,100
2022-10-14T05:07:23.778Z,100
2022-10-14T05:12:25.402Z,100
2022-10-14T05:17:26.886Z,100
2022-10-14T05:22:28.975Z,100
2022-10-14T05:27:30.540Z,100
2022-10-14T05:33:20.305Z,100
2022-10-14T05:37:33.971Z,100
2022-10-14T05:42:35.470Z,100
2022-10-14T05:47:37.661Z,100
2022-10-14T05:52:39.251Z,100
2022-10-14T05:57:41.330Z,100
2022-10-14T06:02:43.190Z,100
2022-10-14T06:07:44.754Z,100
2022-10-14T06:12:46.896Z,100
2022-10-14T06:17:48.657Z,100
2022-10-14T06:22:49.973Z,100
2022-10-14T06:27:51.449Z,100
2022-10-14T06:32:53.025Z,100
2022-10-14T06:37:54.555Z,100
2022-10-14T06:43:44.195Z,100
2022-10-14T06:47:58.087Z,100
2022-10-14T06:52:59.477Z,100
2022-10-14T06:58:49.216Z,100
2022-10-14T07:03:03.772Z,100
2022-10-14T07:08:05.347Z,100
2022-10-14T07:13:07.403Z,100
2022-10-14T07:18:09.562Z,100
2022-10-14T07:23:10.965Z,100
2022-10-14T07:28:12.519Z,100
2022-10-14T07:33:13.833Z,100
2022-10-14T07:38:15.732Z,100
2022-10-14T07:43:17.522Z,100
2022-10-14T07:48:23.101Z,100
2022-10-14T07:53:20.867Z,100
2022-10-14T07:58:22.556Z,100
2022-10-14T08:03:23.976Z,100
2022-10-14T08:09:13.698Z,100
2022-10-14T08:13:27.240Z,100
2022-10-14T08:18:29.050Z,100
2022-10-14T08:23:30.891Z,100
2022-10-14T08:28:32.482Z,100
2022-10-14T08:33:34.386Z,100
2022-10-14T08:38:35.679Z,100
2022-10-14T08:43:37.180Z,100
2022-10-14T08:48:39.024Z,100
2022-10-14T08:53:40.739Z,100
2022-10-14T08:58:42.090Z,100
2022-10-14T09:03:43.474Z,100
2022-10-14T09:08:45.067Z,100
2022-10-14T09:13:47.137Z,100
2022-10-14T09:18:49.735Z,100
2022-10-14T09:23:49.985Z,100
2022-10-14T09:28:51.946Z,100
2022-10-14T09:34:41.470Z,100
2022-10-14T09:38:54.981Z,96
2022-10-14T09:43:56.788Z,100
2022-10-14T09:48:57.991Z,97
2022-10-14T09:53:59.509Z,89
2022-10-14T09:59:01.538Z,100
2022-10-14T10:09:04.965Z,86
2022-10-14T10:14:06.586Z,93
2022-10-14T10:19:56.169Z,88
2022-10-14T10:24:10.073Z,83
2022-10-14T10:29:11.759Z,92
2022-10-14T10:34:13.459Z,87
2022-10-14T10:39:15.289Z,81
2022-10-14T10:44:17.148Z,85
2022-10-14T10:49:18.801Z,77
2022-10-14T10:54:21.025Z,71
2022-10-14T10:59:22.806Z,77
2022-10-14T11:04:24.632Z,76
2022-10-14T11:09:25.882Z,74
2022-10-14T11:14:25.781Z,71
2022-10-14T11:19:27.744Z,73
2022-10-14T11:24:29.470Z,74
2022-10-14T11:29:31.485Z,71
2022-10-14T11:34:33.314Z,70
2022-10-14T11:39:35.689Z,73
2022-10-14T11:44:37.132Z,71
2022-10-14T11:49:38.748Z,76
2022-10-14T11:54:49.603Z,71
2022-10-14T11:59:42.125Z,75
2022-10-14T12:04:44.244Z,74
2022-10-14T12:09:46.141Z,76
2022-10-14T12:14:48.288Z,75
2022-10-14T12:19:49.709Z,72
2022-10-14T12:24:50.911Z,77
2022-10-14T12:29:53.047Z,75
2022-10-14T12:34:54.414Z,77
2022-10-14T12:39:55.795Z,73
2022-10-14T12:44:57.842Z,77
2022-10-14T12:50:00.047Z,77
2022-10-14T12:55:01.833Z,75
2022-10-14T13:00:03.815Z,78
2022-10-14T13:05:05.445Z,75
2022-10-14T13:10:06.648Z,80
2022-10-14T13:15:08.891Z,79
2022-10-14T13:20:11.268Z,78
2022-10-14T13:25:12.422Z,82
2022-10-14T13:30:14.666Z,80
2022-10-14T13:35:16.440Z,81
2022-10-14T13:40:17.903Z,86
2022-10-14T13:45:19.967Z,82
2022-10-14T13:50:21.838Z,87
2022-10-14T13:55:23.332Z,85
2022-10-14T14:00:41.385Z,87
2022-10-14T14:05:26.798Z,85
2022-10-14T14:15:30.397Z,85
2022-10-14T14:20:32.219Z,97
2022-10-14T14:25:35.231Z,100
2022-10-14T14:30:35.224Z,100
2022-10-14T14:35:36.803Z,100
2022-10-14T14:40:38.078Z,100
2022-10-14T14:45:39.410Z,100
2022-10-14T14:50:40.903Z,100
2022-10-14T14:55:43.008Z,100
2022-10-14T15:00:44.997Z,100
2022-10-14T15:05:46.828Z,100
2022-10-14T15:10:48.249Z,100
2022-10-14T15:15:50.118Z,100
2022-10-14T15:20:51.998Z,100
2022-10-14T15:25:53.195Z,100
2022-10-14T15:30:54.849Z,100
2022-10-14T15:35:56.585Z,100
2022-10-14T15:40:58.823Z,100
2022-10-14T15:46:00.496Z,100
2022-10-14T15:51:01.698Z,100
2022-10-14T15:56:03.817Z,100
2022-10-14T16:01:05.467Z,100
2022-10-14T16:06:07.322Z,100
2022-10-14T16:11:08.935Z,100
2022-10-14T16:16:58.580Z,100
2022-10-14T16:21:12.281Z,100
2022-10-14T16:26:13.699Z,100
2022-10-14T16:31:14.884Z,100
2022-10-14T16:36:16.147Z,100
2022-10-14T16:41:17.497Z,100
2022-10-14T16:46:19.273Z,100
2022-10-14T16:56:22.628Z,100
2022-10-14T17:01:24.172Z,100
2022-10-14T17:06:25.559Z,100
2022-10-14T17:11:26.847Z,100
2022-10-14T17:16:28.641Z,100
2022-10-14T17:21:30.729Z,100
2022-10-14T17:26:32.413Z,100
2022-10-14T17:31:34.216Z,100
2022-10-14T17:36:36.291Z,100
2022-10-14T17:41:37.833Z,100
2022-10-14T17:46:39.503Z,100
2022-10-14T17:51:41.627Z,100
2022-10-14T17:56:43.547Z,100
2022-10-14T18:06:46.863Z,100
2022-10-14T18:31:54.522Z,100
2022-10-14T18:46:59.669Z,100
2022-10-14T18:52:01.098Z,100
2022-10-14T19:02:04.939Z,100
2022-10-14T19:12:08.093Z,100
2022-10-14T19:17:57.719Z,100
2022-10-14T19:28:10.475Z,100
2022-10-14T19:33:12.319Z,100
2022-10-14T19:38:14.421Z,100
2022-10-14T19:43:16.232Z,100
2022-10-14T19:48:17.940Z,100
2022-10-14T19:53:19.905Z,100
2022-10-14T19:58:21.668Z,100
2022-10-14T20:03:23.087Z,100
2022-10-14T20:08:24.261Z,100
2022-10-14T20:13:25.700Z,100
2022-10-14T20:18:26.956Z,100
2022-10-14T20:23:28.491Z,100
2022-10-14T20:28:30.273Z,100
2022-10-14T20:33:32.137Z,100
2022-10-14T20:38:34.148Z,100
2022-10-14T20:43:35.339Z,100
2022-10-14T20:48:36.650Z,100
2022-10-14T20:53:37.907Z,100
2022-10-14T20:58:39.263Z,100
2022-10-14T21:03:41.326Z,100
2022-10-14T21:08:42.621Z,100
2022-10-14T21:13:44.080Z,100
2022-10-14T21:18:45.390Z,100
2022-10-14T21:23:47.528Z,100
2022-10-14T21:28:49.411Z,100
2022-10-14T21:33:51.086Z,100
2022-10-14T21:38:53.165Z,100
2022-10-14T21:43:54.813Z,100
2022-10-14T21:48:56.013Z,100
2022-10-14T21:53:57.850Z,100
2022-10-14T21:58:59.918Z,100
2022-10-14T22:14:52.349Z,100
2022-10-14T22:19:06.561Z,100
2022-10-14T22:29:10.044Z,100
2022-10-14T22:34:11.860Z,100
2022-10-14T22:39:13.869Z,100
2022-10-14T22:44:15.593Z,100
2022-10-14T22:49:17.300Z,100
2022-10-14T22:54:18.898Z,100
2022-10-14T22:59:20.297Z,100
2022-10-14T23:04:22.190Z,100
2022-10-14T23:10:11.810Z,100
2022-10-14T23:14:25.574Z,100
2022-10-14T23:19:27.761Z,100
2022-10-14T23:24:28.950Z,100
2022-10-14T23:29:30.905Z,100
2022-10-14T23:34:33.073Z,100
2022-10-14T23:39:34.485Z,100
2022-10-14T23:44:35.901Z,100
2022-10-14T23:49:48.971Z,100
2022-10-14T23:54:39.595Z,100
2022-10-14T23:59:41.611Z,100
